Time;durP1;ratioP1;P1;durP2;ratioP2;P2;SDS_P1;SDS_P2;PMS_P1;PMS_P2;Temp;Humidity;BMP_temperature;BMP_pressure;BME280_temperature;BME280_humidity;BME280_pressure;Samples;Min_cycle;Max_cycle;Signal;HPM_P1;HPM_P2
2022/03/31 00:00:28;;;;;;;;;;;;;;;;;;5063800;28;20292;-77
2022/03/31 00:02:55;;;;;;;;;;;;;;;;;;5066816;28;19920;-77
2022/03/31 00:05:20;;;;;;;;;;;;;;;;;;5062923;28;19934;-77
2022/03/31 00:07:47;;;;;;;;;;;;;;;;;;5057643;28;20007;-78
2022/03/31 00:10:12;;;;;;;;;;;;;;;;;;5061824;28;19935;-76
2022/03/31 00:12:38;;;;;;;;;;;;;;;;;;5061531;28;19929;-77
2022/03/31 00:15:04;;;;;;;;;;;;;;;;;;5059852;28;19921;-78
2022/03/31 00:17:29;;;;;;;;;;;;;;;;;;5061523;28;19983;-77
2022/03/31 00:19:55;;;;;;;;;;;;;;;;;;5063383;28;20005;-77
2022/03/31 00:34:31;;;;;;;;;;;;;;;;;;5060383;28;19943;-78
2022/03/31 00:36:57;;;;;;;;;;;;;;;;;;5058740;28;20373;-76
2022/03/31 00:39:34;;;;;;;;;;;;;;;;;;5061209;28;19928;-77
2022/03/31 00:42:01;;;;;;;;;;;;;;;;;;5064610;28;19932;-77
2022/03/31 00:44:27;;;;;;;;;;;;;;;;;;5061953;28;20356;-77
2022/03/31 00:46:53;;;;;;;;;;;;;;;;;;5056502;28;19917;-78
2022/03/31 00:49:20;;;;;;;;;;;;;;;;;;5052302;28;19917;-76
2022/03/31 00:51:46;;;;;;;;;;;;;;;;;;5069896;28;19917;-77
2022/03/31 00:54:12;;;;;;;;;;;;;;;;;;5072309;28;19963;-77
2022/03/31 00:56:38;;;;;;;;;;;;;;;;;;5072369;28;20013;-78
2022/03/31 00:59:04;;;;;;;;;;;;;;;;;;5071077;28;19929;-76
2022/03/31 01:01:31;;;;;;;;;;;;;;;;;;5072125;28;19924;-76
2022/03/31 01:03:57;;;;;;;;;;;;;;;;;;5054359;28;19916;-78
2022/03/31 01:06:23;;;;;;;;;;;;;;;;;;5072490;28;19912;-77
2022/03/31 01:08:48;;;;;;;;;;;;;;;;;;5072419;28;19939;-75
2022/03/31 01:11:14;;;;;;;;;;;;;;;;;;5074189;28;19923;-77
2022/03/31 01:13:40;;;;;;;;;;;;;;;;;;5075790;28;19917;-76
2022/03/31 01:16:05;;;;;;;;;;;;;;;;;;5074593;28;20391;-77
2022/03/31 01:18:30;;;;;;;;;;;;;;;;;;5075810;28;20348;-77
2022/03/31 01:20:56;;;;;;;;;;;;;;;;;;5075699;28;19921;-76
2022/03/31 01:23:21;;;;;;;;;;;;;;;;;;5075799;28;19986;-77
2022/03/31 01:25:47;;;;;;;;;;;;;;;;;;5074809;28;20466;-76
2022/03/31 01:28:12;;;;;;;;;;;;;;;;;;5059811;28;19920;-76
2022/03/31 01:30:38;;;;;;;;;;;;;;;;;;5055493;28;20385;-77
2022/03/31 01:33:03;;;;;;;;;;;;;;;;;;5061082;28;19920;-77
2022/03/31 01:35:29;;;;;;;;;;;;;;;;;;5075251;28;19939;-77
2022/03/31 01:37:54;;;;;;;;;;;;;;;;;;5075345;28;20011;-77
2022/03/31 01:40:20;;;;;;;;;;;;;;;;;;5075446;28;20026;-77
2022/03/31 01:42:45;;;;;;;;;;;;;;;;;;5075371;28;19916;-76
2022/03/31 01:45:15;;;;;;;;;;;;;;;;;;5075376;28;19912;-77
2022/03/31 01:47:41;;;;;;;;;;;;;;;;;;5075181;28;20386;-77
2022/03/31 01:50:10;;;;;;;;;;;;;;;;;;5039925;28;19924;-77
2022/03/31 01:52:36;;;;;;;;;;;;;;;;;;5055055;28;20070;-76
2022/03/31 01:55:02;;;;;;;;;;;;;;;;;;5054992;28;19917;-77
2022/03/31 01:57:28;;;;;;;;;;;;;;;;;;5060405;28;20284;-77
2022/03/31 01:59:54;;;;;;;;;;;;;;;;;;5075028;28;19920;-77
2022/03/31 02:02:20;;;;;;;;;;;;;;;;;;5074905;28;20433;-76
2022/03/31 02:04:46;;;;;;;;;;;;;;;;;;5074803;28;19916;-76
2022/03/31 02:07:12;;;;;;;;;;;;;;;;;;5073866;28;20395;-77
2022/03/31 02:09:37;;;;;;;;;;;;;;;;;;5074832;28;19967;-77
2022/03/31 02:12:03;;;;;;;;;;;;;;;;;;5074694;28;19916;-77
2022/03/31 02:14:28;;;;;;;;;;;;;;;;;;5074691;28;19923;-77
2022/03/31 02:16:55;;;;;;;;;;;;;;;;;;5074725;28;19967;-77
2022/03/31 02:19:21;;;;;;;;;;;;;;;;;;5073291;28;19929;-77
2022/03/31 02:21:46;;;;;;;;;;;;;;;;;;5038343;28;19921;-78
2022/03/31 02:24:12;;;;;;;;;;;;;;;;;;5054485;28;19931;-77
2022/03/31 02:26:38;;;;;;;;;;;;;;;;;;5054887;28;19917;-78
2022/03/31 02:29:03;;;;;;;;;;;;;;;;;;5074156;28;19924;-77
2022/03/31 02:31:30;;;;;;;;;;;;;;;;;;5059361;28;19923;-76
2022/03/31 02:33:55;;;;;;;;;;;;;;;;;;5074175;28;19946;-77
2022/03/31 02:36:21;;;;;;;;;;;;;;;;;;5056153;28;19920;-77
2022/03/31 02:38:47;;;;;;;;;;;;;;;;;;5074300;28;19916;-76
2022/03/31 02:41:12;;;;;;;;;;;;;;;;;;5060274;28;19921;-77
2022/03/31 02:43:38;;;;;;;;;;;;;;;;;;5057587;28;19924;-78
2022/03/31 02:46:03;;;;;;;;;;;;;;;;;;5068958;28;19916;-78
2022/03/31 02:48:29;;;;;;;;;;;;;;;;;;5042501;28;19940;-78
2022/03/31 02:50:54;;;;;;;;;;;;;;;;;;5066205;28;19916;-77
2022/03/31 02:56:14;;;;;;;;;;;;;;;;;;4994669;28;19933;-76
2022/03/31 02:58:41;;;;;;;;;;;;;;;;;;4998661;28;19918;-77
2022/03/31 03:01:06;;;;;;;;;;;;;;;;;;4989284;28;20013;-76
2022/03/31 03:03:32;;;;;;;;;;;;;;;;;;4982640;28;19921;-75
2022/03/31 03:06:01;;;;;;;;;;;;;;;;;;4984857;28;19965;-76
2022/03/31 03:08:27;;;;;;;;;;;;;;;;;;4986953;28;19926;-75
2022/03/31 03:10:57;;;;;;;;;;;;;;;;;;4977074;28;20080;-76
2022/03/31 03:13:22;;;;;;;;;;;;;;;;;;4988667;28;19926;-75
2022/03/31 03:15:48;;;;;;;;;;;;;;;;;;4982216;28;19922;-75
2022/03/31 03:18:15;;;;;;;;;;;;;;;;;;4982719;28;20412;-76
2022/03/31 03:20:40;;;;;;;;;;;;;;;;;;4982648;28;19933;-75
2022/03/31 03:23:06;;;;;;;;;;;;;;;;;;4988687;28;19922;-76
2022/03/31 03:25:31;;;;;;;;;;;;;;;;;;4987717;28;20049;-75
2022/03/31 03:27:58;;;;;;;;;;;;;;;;;;4986258;28;20318;-76
2022/03/31 03:30:23;;;;;;;;;;;;;;;;;;4982599;28;21047;-76
2022/03/31 03:32:49;;;;;;;;;;;;;;;;;;5024924;28;19920;-74
2022/03/31 03:35:15;;;;;;;;;;;;;;;;;;5062237;28;19927;-76
2022/03/31 03:37:41;;;;;;;;;;;;;;;;;;5064503;28;19927;-76
2022/03/31 03:40:07;;;;;;;;;;;;;;;;;;5063829;28;20455;-76
2022/03/31 03:42:32;;;;;;;;;;;;;;;;;;5057184;28;19982;-75
2022/03/31 03:44:58;;;;;;;;;;;;;;;;;;5062953;28;19999;-77
2022/03/31 03:47:23;;;;;;;;;;;;;;;;;;5061829;28;20018;-74
2022/03/31 03:49:49;;;;;;;;;;;;;;;;;;5059002;28;19959;-75
2022/03/31 03:52:15;;;;;;;;;;;;;;;;;;5057301;28;19917;-75
2022/03/31 03:54:40;;;;;;;;;;;;;;;;;;5062034;28;20039;-75
2022/03/31 03:57:06;;;;;;;;;;;;;;;;;;5072867;28;19916;-76
2022/03/31 03:59:31;;;;;;;;;;;;;;;;;;5058742;28;20002;-75
2022/03/31 04:01:59;;;;;;;;;;;;;;;;;;5065119;28;19931;-75
2022/03/31 04:04:25;;;;;;;;;;;;;;;;;;5058494;28;19920;-75
2022/03/31 04:06:50;;;;;;;;;;;;;;;;;;5063516;28;19924;-75
2022/03/31 04:09:16;;;;;;;;;;;;;;;;;;5059562;28;20376;-76
2022/03/31 04:11:41;;;;;;;;;;;;;;;;;;5056267;28;19921;-76
2022/03/31 04:14:07;;;;;;;;;;;;;;;;;;5057870;28;19921;-75
2022/03/31 04:16:33;;;;;;;;;;;;;;;;;;5056276;28;20020;-75
2022/03/31 04:18:58;;;;;;;;;;;;;;;;;;5070919;28;20003;-76
2022/03/31 04:21:24;;;;;;;;;;;;;;;;;;5062406;28;19938;-77
2022/03/31 04:23:49;;;;;;;;;;;;;;;;;;5058807;28;20011;-78
2022/03/31 04:26:15;;;;;;;;;;;;;;;;;;5057645;28;19920;-77
2022/03/31 04:28:40;;;;;;;;;;;;;;;;;;5070376;28;19921;-77
2022/03/31 04:31:06;;;;;;;;;;;;;;;;;;5070535;28;19923;-77
2022/03/31 04:33:31;;;;;;;;;;;;;;;;;;5072040;28;19920;-76
2022/03/31 04:35:57;;;;;;;;;;;;;;;;;;5072198;28;19956;-78
2022/03/31 04:38:22;;;;;;;;;;;;;;;;;;5072709;28;19920;-78
2022/03/31 04:40:48;;;;;;;;;;;;;;;;;;5072583;28;20373;-77
2022/03/31 04:43:13;;;;;;;;;;;;;;;;;;5054961;28;19925;-76
2022/03/31 04:45:39;;;;;;;;;;;;;;;;;;5055182;28;19917;-78
2022/03/31 04:48:05;;;;;;;;;;;;;;;;;;5056364;28;19916;-78
2022/03/31 04:50:30;;;;;;;;;;;;;;;;;;5056318;28;19944;-77
2022/03/31 04:52:56;;;;;;;;;;;;;;;;;;5056322;28;19987;-77
2022/03/31 04:55:21;;;;;;;;;;;;;;;;;;5056283;28;19964;-78
2022/03/31 04:57:47;;;;;;;;;;;;;;;;;;5056303;28;20331;-76
2022/03/31 05:00:13;;;;;;;;;;;;;;;;;;5055513;28;20009;-78
2022/03/31 05:02:38;;;;;;;;;;;;;;;;;;5056170;28;19916;-78
2022/03/31 05:05:04;;;;;;;;;;;;;;;;;;5056129;28;20008;-78
2022/03/31 05:07:29;;;;;;;;;;;;;;;;;;5055995;28;20041;-78
2022/03/31 05:09:55;;;;;;;;;;;;;;;;;;5056144;28;19916;-77
2022/03/31 05:12:21;;;;;;;;;;;;;;;;;;5055839;28;19921;-78
2022/03/31 05:14:46;;;;;;;;;;;;;;;;;;5056063;28;19923;-77
2022/03/31 05:17:11;;;;;;;;;;;;;;;;;;5055814;28;20343;-77
2022/03/31 05:19:38;;;;;;;;;;;;;;;;;;5055179;28;19931;-77
2022/03/31 05:22:03;;;;;;;;;;;;;;;;;;5055659;28;19920;-76
2022/03/31 05:24:29;;;;;;;;;;;;;;;;;;5055442;28;19917;-78
2022/03/31 05:26:54;;;;;;;;;;;;;;;;;;5055507;28;19952;-79
2022/03/31 05:29:20;;;;;;;;;;;;;;;;;;5055683;28;19917;-77
2022/03/31 05:31:46;;;;;;;;;;;;;;;;;;5055605;28;20392;-76
2022/03/31 05:34:14;;;;;;;;;;;;;;;;;;5055491;28;19970;-77
2022/03/31 05:36:40;;;;;;;;;;;;;;;;;;5054623;28;19986;-77
2022/03/31 05:39:06;;;;;;;;;;;;;;;;;;5055433;28;20349;-76
2022/03/31 05:41:31;;;;;;;;;;;;;;;;;;5055465;28;20401;-77
2022/03/31 05:43:57;;;;;;;;;;;;;;;;;;5055365;28;19968;-77
2022/03/31 05:46:23;;;;;;;;;;;;;;;;;;5055389;28;19921;-78
2022/03/31 05:48:49;;;;;;;;;;;;;;;;;;5055280;28;19928;-77
2022/03/31 05:51:15;;;;;;;;;;;;;;;;;;5054576;28;19920;-76
2022/03/31 05:53:41;;;;;;;;;;;;;;;;;;5054715;28;20055;-77
2022/03/31 05:56:07;;;;;;;;;;;;;;;;;;5054335;28;20011;-77
2022/03/31 05:58:33;;;;;;;;;;;;;;;;;;5055064;28;20004;-77
2022/03/31 06:00:58;;;;;;;;;;;;;;;;;;5062263;28;19920;-77
2022/03/31 06:03:24;;;;;;;;;;;;;;;;;;5073919;28;20334;-77
2022/03/31 06:05:50;;;;;;;;;;;;;;;;;;5074877;28;19918;-76
2022/03/31 06:08:17;;;;;;;;;;;;;;;;;;5075004;28;19921;-77
2022/03/31 06:10:42;;;;;;;;;;;;;;;;;;5056475;28;20342;-76
2022/03/31 06:13:09;;;;;;;;;;;;;;;;;;5074291;28;19967;-77
2022/03/31 06:15:35;;;;;;;;;;;;;;;;;;5074007;28;20007;-76
2022/03/31 06:18:00;;;;;;;;;;;;;;;;;;5074401;28;19971;-77
2022/03/31 06:20:27;;;;;;;;;;;;;;;;;;5074680;28;19916;-77
2022/03/31 06:22:53;;;;;;;;;;;;;;;;;;5074499;28;19927;-77
2022/03/31 06:25:20;;;;;;;;;;;;;;;;;;5067142;28;20391;-77
2022/03/31 06:27:46;;;;;;;;;;;;;;;;;;5054574;28;19924;-77
2022/03/31 06:30:12;;;;;;;;;;;;;;;;;;5054502;28;19927;-78
2022/03/31 06:32:37;;;;;;;;;;;;;;;;;;5054402;28;19921;-77
2022/03/31 06:35:03;;;;;;;;;;;;;;;;;;5054402;28;19917;-77
2022/03/31 06:37:28;;;;;;;;;;;;;;;;;;5054150;28;19960;-77
2022/03/31 06:39:54;;;;;;;;;;;;;;;;;;5054400;28;19917;-78
2022/03/31 06:42:19;;;;;;;;;;;;;;;;;;5053961;28;20369;-77
2022/03/31 06:44:45;;;;;;;;;;;;;;;;;;5054030;28;20281;-77
2022/03/31 06:47:10;;;;;;;;;;;;;;;;;;5054114;28;19921;-77
2022/03/31 06:49:35;;;;;;;;;;;;;;;;;;5054152;28;19917;-78
2022/03/31 06:52:01;;;;;;;;;;;;;;;;;;5054026;28;19924;-78
2022/03/31 06:54:27;;;;;;;;;;;;;;;;;;5053859;28;19939;-77
2022/03/31 06:56:52;;;;;;;;;;;;;;;;;;5053997;28;20365;-77
2022/03/31 06:59:20;;;;;;;;;;;;;;;;;;5065467;28;19917;-77
2022/03/31 07:01:46;;;;;;;;;;;;;;;;;;5073781;28;19920;-78
2022/03/31 07:04:11;;;;;;;;;;;;;;;;;;5056135;28;19923;-77
2022/03/31 07:06:37;;;;;;;;;;;;;;;;;;5073663;28;19916;-77
2022/03/31 07:09:03;;;;;;;;;;;;;;;;;;5073655;28;19917;-78
2022/03/31 07:11:28;;;;;;;;;;;;;;;;;;5073881;28;19916;-77
2022/03/31 07:13:54;;;;;;;;;;;;;;;;;;5072567;28;20053;-77
2022/03/31 07:16:19;;;;;;;;;;;;;;;;;;5054230;28;19917;-77
2022/03/31 07:18:45;;;;;;;;;;;;;;;;;;5061276;28;20337;-77
2022/03/31 07:21:11;;;;;;;;;;;;;;;;;;5078240;28;20015;-76
2022/03/31 07:23:36;;;;;;;;;;;;;;;;;;5079355;28;20292;-76
2022/03/31 07:26:02;;;;;;;;;;;;;;;;;;5074439;28;20292;-75
2022/03/31 07:28:27;;;;;;;;;;;;;;;;;;5074139;28;19916;-76
2022/03/31 08:27:19;;;;;;;;;;;;;;;;;;5128986;27;19920;-84
2022/03/31 08:29:45;;;;;;;;;;;;;;;;;;5107977;28;19922;-83
2022/03/31 08:32:11;;;;;;;;;;;;;;;;;;5101495;28;19920;-84
2022/03/31 08:34:36;;;;;;;;;;;;;;;;;;5110394;28;19974;-79
2022/03/31 08:37:03;;;;;;;;;;;;;;;;;;5101702;28;19982;-83
2022/03/31 08:39:28;;;;;;;;;;;;;;;;;;5104180;28;19981;-83
2022/03/31 08:41:54;;;;;;;;;;;;;;;;;;5108139;28;20375;-82
2022/03/31 08:44:20;;;;;;;;;;;;;;;;;;5101289;28;19919;-83
2022/03/31 08:46:46;;;;;;;;;;;;;;;;;;5099865;28;19920;-85
2022/03/31 08:49:12;;;;;;;;;;;;;;;;;;5101661;28;19924;-88
2022/03/31 08:51:38;;;;;;;;;;;;;;;;;;5099201;28;19916;-86
2022/03/31 08:54:05;;;;;;;;;;;;;;;;;;5095091;28;19927;-82
2022/03/31 08:56:32;;;;;;;;;;;;;;;;;;5097504;28;19923;-78
2022/03/31 08:58:57;;;;;;;;;;;;;;;;;;5100828;28;20405;-83
2022/03/31 09:01:23;;;;;;;;;;;;;;;;;;5103918;28;19963;-79
2022/03/31 09:03:48;;;;;;;;;;;;;;;;;;5104392;28;19920;-81
2022/03/31 09:06:21;;;;;;;;;;;;;;;;;;5099667;28;19928;-81
2022/03/31 09:08:54;;;;;;;;;;;;;;;;;;5096375;28;20390;-82
2022/03/31 09:11:24;;;;;;;;;;;;;;;;;;5101324;28;20347;-77
2022/03/31 09:13:54;;;;;;;;;;;;;;;;;;5101331;28;19985;-81
2022/03/31 09:16:28;;;;;;;;;;;;;;;;;;5099477;28;19927;-85
2022/03/31 09:18:58;;;;;;;;;;;;;;;;;;5100568;28;19923;-80
2022/03/31 09:21:24;;;;;;;;;;;;;;;;;;5099572;28;20342;-82
2022/03/31 09:23:49;;;;;;;;;;;;;;;;;;5101174;28;20003;-81
2022/03/31 09:26:16;;;;;;;;;;;;;;;;;;5097396;28;20378;-85
2022/03/31 09:28:45;;;;;;;;;;;;;;;;;;5083951;28;19916;-84
2022/03/31 09:31:12;;;;;;;;;;;;;;;;;;5085340;28;20012;-85
2022/03/31 09:33:39;;;;;;;;;;;;;;;;;;5089870;28;19924;-88
2022/03/31 09:36:13;;;;;;;;;;;;;;;;;;5082643;28;19943;-88
2022/03/31 09:38:39;;;;;;;;;;;;;;;;;;5085387;28;19916;-85
2022/03/31 09:41:24;;;;;;;;;;;;;;;;;;5085480;28;19924;-83
2022/03/31 09:43:55;;;;;;;;;;;;;;;;;;5085320;28;19926;-79
2022/03/31 09:46:43;;;;;;;;;;;;;;;;;;5088444;28;19928;-79
2022/03/31 09:49:29;;;;;;;;;;;;;;;;;;5079738;28;19927;-78
2022/03/31 09:52:01;;;;;;;;;;;;;;;;;;5100313;28;19941;-80
2022/03/31 09:54:27;;;;;;;;;;;;;;;;;;5095247;28;19923;-81
2022/03/31 09:56:54;;;;;;;;;;;;;;;;;;5080250;28;19920;-81
2022/03/31 09:59:19;;;;;;;;;;;;;;;;;;5086915;28;19916;-85
2022/03/31 10:01:45;;;;;;;;;;;;;;;;;;5075584;28;19924;-81
2022/03/31 10:04:12;;;;;;;;;;;;;;;;;;5082503;28;19920;-80
2022/03/31 10:06:38;;;;;;;;;;;;;;;;;;5094413;28;19927;-81
2022/03/31 10:09:05;;;;;;;;;;;;;;;;;;5080690;28;19948;-81
2022/03/31 10:11:32;;;;;;;;;;;;;;;;;;5087751;28;19926;-87
2022/03/31 10:14:20;;;;;;;;;;;;;;;;;;5082662;28;19960;-81
2022/03/31 10:16:50;;;;;;;;;;;;;;;;;;5083019;28;19973;-81
2022/03/31 10:19:45;;;;;;;;;;;;;;;;;;5090188;28;19927;-84
2022/03/31 10:24:41;;;;;;;;;;;;;;;;;;5077877;28;19920;-82
2022/03/31 10:25:03;;;;;;;;;;;;;;;;;;5082262;28;19963;-81
2022/03/31 10:27:30;;;;;;;;;;;;;;;;;;5089770;28;19920;-84
2022/03/31 10:30:07;;;;;;;;;;;;;;;;;;5086383;28;19916;-83
2022/03/31 10:32:33;;;;;;;;;;;;;;;;;;5096821;28;19920;-82
2022/03/31 10:34:58;;;;;;;;;;;;;;;;;;5089022;28;20332;-82
2022/03/31 10:37:32;;;;;;;;;;;;;;;;;;5081566;28;19921;-83
2022/03/31 10:39:57;;;;;;;;;;;;;;;;;;5087836;28;19920;-86
2022/03/31 10:42:23;;;;;;;;;;;;;;;;;;5090952;28;19933;-86
2022/03/31 10:44:49;;;;;;;;;;;;;;;;;;5089329;28;20348;-84
2022/03/31 10:47:16;;;;;;;;;;;;;;;;;;5087678;28;20299;-87
2022/03/31 10:49:51;;;;;;;;;;;;;;;;;;5091197;28;19920;-83
2022/03/31 10:52:19;;;;;;;;;;;;;;;;;;5091370;28;19920;-88
2022/03/31 10:54:46;;;;;;;;;;;;;;;;;;5086690;28;20401;-85
2022/03/31 10:57:12;;;;;;;;;;;;;;;;;;5089599;28;19926;-81
2022/03/31 10:59:38;;;;;;;;;;;;;;;;;;5081864;28;20007;-84
2022/03/31 11:02:11;;;;;;;;;;;;;;;;;;5090345;28;19930;-85
2022/03/31 11:04:47;;;;;;;;;;;;;;;;;;5091730;28;20358;-85
2022/03/31 11:07:14;;;;;;;;;;;;;;;;;;5078409;28;19959;-86
2022/03/31 11:09:40;;;;;;;;;;;;;;;;;;5088487;28;19928;-86
2022/03/31 11:12:05;;;;;;;;;;;;;;;;;;5087070;28;19920;-79
2022/03/31 11:14:31;;;;;;;;;;;;;;;;;;5092596;28;19920;-86
2022/03/31 11:16:56;;;;;;;;;;;;;;;;;;5085678;28;19946;-87
2022/03/31 11:19:22;;;;;;;;;;;;;;;;;;5090518;28;20286;-81
2022/03/31 11:21:47;;;;;;;;;;;;;;;;;;5081105;28;20452;-84
2022/03/31 11:24:13;;;;;;;;;;;;;;;;;;5074002;28;20327;-80
2022/03/31 11:26:44;;;;;;;;;;;;;;;;;;5084635;28;19920;-84
2022/03/31 11:29:14;;;;;;;;;;;;;;;;;;5087413;28;19920;-81
2022/03/31 11:31:45;;;;;;;;;;;;;;;;;;5074067;28;19920;-83
2022/03/31 11:34:18;;;;;;;;;;;;;;;;;;5085307;28;20276;-83
2022/03/31 11:36:43;;;;;;;;;;;;;;;;;;5090290;28;19916;-84
2022/03/31 11:39:09;;;;;;;;;;;;;;;;;;5085752;28;20356;-82
2022/03/31 11:41:41;;;;;;;;;;;;;;;;;;5084763;28;20387;-79
2022/03/31 11:44:07;;;;;;;;;;;;;;;;;;5084598;28;20010;-81
2022/03/31 11:46:43;;;;;;;;;;;;;;;;;;5079042;28;19959;-86
2022/03/31 11:49:21;;;;;;;;;;;;;;;;;;5079924;28;20417;-83
2022/03/31 11:51:48;;;;;;;;;;;;;;;;;;5079415;28;19931;-84
2022/03/31 11:54:13;;;;;;;;;;;;;;;;;;5087979;28;19931;-83
2022/03/31 11:56:39;;;;;;;;;;;;;;;;;;5080736;28;19920;-82
2022/03/31 11:59:05;;;;;;;;;;;;;;;;;;5090191;28;20405;-83
2022/03/31 12:01:34;;;;;;;;;;;;;;;;;;5092730;28;19920;-81
2022/03/31 12:04:00;;;;;;;;;;;;;;;;;;5089757;28;20007;-85
2022/03/31 12:06:26;;;;;;;;;;;;;;;;;;5091617;28;20003;-82
2022/03/31 12:08:55;;;;;;;;;;;;;;;;;;5087499;28;19920;-86
2022/03/31 12:11:20;;;;;;;;;;;;;;;;;;5087006;28;19920;-85
2022/03/31 12:13:53;;;;;;;;;;;;;;;;;;5081638;28;19925;-86
2022/03/31 12:16:20;;;;;;;;;;;;;;;;;;5088758;28;19920;-84
2022/03/31 12:18:52;;;;;;;;;;;;;;;;;;5090522;28;19916;-82
2022/03/31 12:21:17;;;;;;;;;;;;;;;;;;5086853;28;19924;-85
2022/03/31 12:23:43;;;;;;;;;;;;;;;;;;5074482;28;19916;-80
2022/03/31 12:26:13;;;;;;;;;;;;;;;;;;5073705;28;20015;-79
2022/03/31 12:28:42;;;;;;;;;;;;;;;;;;5080096;28;20290;-82
2022/03/31 12:31:18;;;;;;;;;;;;;;;;;;5085530;28;19961;-84
2022/03/31 12:33:46;;;;;;;;;;;;;;;;;;5082916;28;19920;-82
2022/03/31 12:36:12;;;;;;;;;;;;;;;;;;5079824;28;19931;-82
2022/03/31 12:38:48;;;;;;;;;;;;;;;;;;5078022;28;20383;-81
2022/03/31 12:41:18;;;;;;;;;;;;;;;;;;5075656;28;19923;-80
2022/03/31 12:43:54;;;;;;;;;;;;;;;;;;5076981;28;19920;-83
2022/03/31 12:46:19;;;;;;;;;;;;;;;;;;5060262;28;19921;-82
2022/03/31 12:48:59;;;;;;;;;;;;;;;;;;5075754;28;20393;-81
2022/03/31 12:51:25;;;;;;;;;;;;;;;;;;5077042;28;19943;-77
2022/03/31 12:53:51;;;;;;;;;;;;;;;;;;5089921;27;19997;-80
2022/03/31 12:56:24;;;;;;;;;;;;;;;;;;5080065;28;19924;-82
2022/03/31 12:58:51;;;;;;;;;;;;;;;;;;5081354;28;20268;-84
2022/03/31 13:01:20;;;;;;;;;;;;;;;;;;5080869;28;19965;-84
2022/03/31 13:03:46;;;;;;;;;;;;;;;;;;5091158;28;19927;-84
2022/03/31 13:06:18;;;;;;;;;;;;;;;;;;5093316;28;19927;-87
2022/03/31 13:08:43;;;;;;;;;;;;;;;;;;5083691;28;19920;-82
2022/03/31 13:11:09;;;;;;;;;;;;;;;;;;5089386;28;19924;-90
2022/03/31 13:13:35;;;;;;;;;;;;;;;;;;5086799;28;19916;-89
2022/03/31 13:16:00;;;;;;;;;;;;;;;;;;5084841;28;19920;-80
2022/03/31 13:18:26;;;;;;;;;;;;;;;;;;5086960;28;19971;-81
2022/03/31 13:20:51;;;;;;;;;;;;;;;;;;5088687;27;20371;-78
2022/03/31 13:23:17;;;;;;;;;;;;;;;;;;5083352;28;20918;-83
2022/03/31 13:25:42;;;;;;;;;;;;;;;;;;5093312;28;19924;-80
2022/03/31 13:28:08;;;;;;;;;;;;;;;;;;5093873;28;20011;-83
2022/03/31 13:30:34;;;;;;;;;;;;;;;;;;5090893;28;19923;-87
2022/03/31 13:32:59;;;;;;;;;;;;;;;;;;5095966;28;20314;-88
2022/03/31 13:35:25;;;;;;;;;;;;;;;;;;5090619;28;19924;-85
2022/03/31 13:37:53;;;;;;;;;;;;;;;;;;5081956;28;20359;-79
2022/03/31 13:40:19;;;;;;;;;;;;;;;;;;5089936;28;20496;-84
2022/03/31 13:42:44;;;;;;;;;;;;;;;;;;5091076;28;19949;-81
2022/03/31 13:45:14;;;;;;;;;;;;;;;;;;5092196;28;19920;-79
2022/03/31 13:47:44;;;;;;;;;;;;;;;;;;5091189;28;20026;-79
2022/03/31 13:50:13;;;;;;;;;;;;;;;;;;5090769;28;20364;-80
2022/03/31 13:52:39;;;;;;;;;;;;;;;;;;5091041;28;20053;-80
2022/03/31 13:55:06;;;;;;;;;;;;;;;;;;5083594;28;20010;-81
2022/03/31 14:03:01;;;;;;;;;;;;;;;;;;5092814;28;20428;-85
2022/03/31 14:05:26;;;;;;;;;;;;;;;;;;5092918;28;20379;-87
2022/03/31 14:07:53;;;;;;;;;;;;;;;;;;5091183;28;19920;-83
2022/03/31 14:10:18;;;;;;;;;;;;;;;;;;5088602;28;19923;-84
2022/03/31 14:12:44;;;;;;;;;;;;;;;;;;5088960;28;19927;-88
2022/03/31 14:15:09;;;;;;;;;;;;;;;;;;5090435;28;19920;-83
2022/03/31 14:17:35;;;;;;;;;;;;;;;;;;5086378;28;19970;-78
2022/03/31 14:20:02;;;;;;;;;;;;;;;;;;5091087;28;19924;-80
2022/03/31 14:22:27;;;;;;;;;;;;;;;;;;5088119;28;19920;-81
2022/03/31 14:24:53;;;;;;;;;;;;;;;;;;5082782;28;19916;-84
2022/03/31 14:27:19;;;;;;;;;;;;;;;;;;5086866;28;19927;-83
2022/03/31 14:29:44;;;;;;;;;;;;;;;;;;5088217;28;20427;-84
2022/03/31 14:32:10;;;;;;;;;;;;;;;;;;5091126;28;19920;-87
2022/03/31 14:34:38;;;;;;;;;;;;;;;;;;5090763;28;19967;-82
2022/03/31 14:37:04;;;;;;;;;;;;;;;;;;5092160;28;19941;-83
2022/03/31 14:39:29;;;;;;;;;;;;;;;;;;5088285;28;19920;-87
2022/03/31 14:41:55;;;;;;;;;;;;;;;;;;5088583;28;20376;-79
2022/03/31 14:44:24;;;;;;;;;;;;;;;;;;5093829;28;20012;-79
2022/03/31 14:46:50;;;;;;;;;;;;;;;;;;5088989;28;19970;-86
2022/03/31 14:49:15;;;;;;;;;;;;;;;;;;5089220;28;19967;-83
2022/03/31 14:51:42;;;;;;;;;;;;;;;;;;5091468;28;19928;-79
2022/03/31 14:54:08;;;;;;;;;;;;;;;;;;5089616;28;19920;-80
2022/03/31 14:56:34;;;;;;;;;;;;;;;;;;5089279;28;19920;-77
2022/03/31 14:58:59;;;;;;;;;;;;;;;;;;5088059;28;20360;-82
2022/03/31 15:01:25;;;;;;;;;;;;;;;;;;5088983;28;19924;-80
2022/03/31 15:03:51;;;;;;;;;;;;;;;;;;5092266;28;19920;-81
2022/03/31 15:06:17;;;;;;;;;;;;;;;;;;5089834;28;19928;-80
2022/03/31 15:08:43;;;;;;;;;;;;;;;;;;5088553;28;19924;-82
2022/03/31 15:16:36;;;;;;;;;;;;;;;;;;5090854;28;19935;-90
2022/03/31 15:19:02;;;;;;;;;;;;;;;;;;5092212;28;19916;-88
2022/03/31 15:21:27;;;;;;;;;;;;;;;;;;5084587;28;19924;-88
2022/03/31 15:23:54;;;;;;;;;;;;;;;;;;5091068;28;19927;-90
2022/03/31 15:26:20;;;;;;;;;;;;;;;;;;5092550;28;19920;-88
2022/03/31 15:28:45;;;;;;;;;;;;;;;;;;5091773;28;19951;-85
2022/03/31 15:31:11;;;;;;;;;;;;;;;;;;5088660;28;19927;-88
2022/03/31 15:33:36;;;;;;;;;;;;;;;;;;5090115;28;19924;-84
2022/03/31 15:36:02;;;;;;;;;;;;;;;;;;5090666;28;20379;-87
2022/03/31 15:38:27;;;;;;;;;;;;;;;;;;5090978;28;20371;-87
2022/03/31 15:40:53;;;;;;;;;;;;;;;;;;5088800;28;20007;-85
2022/03/31 15:43:18;;;;;;;;;;;;;;;;;;5090606;28;20325;-86
2022/03/31 15:45:44;;;;;;;;;;;;;;;;;;5092569;28;19934;-87
2022/03/31 15:48:09;;;;;;;;;;;;;;;;;;5091548;28;19951;-90
2022/03/31 15:50:35;;;;;;;;;;;;;;;;;;5089288;28;20010;-83
2022/03/31 15:53:00;;;;;;;;;;;;;;;;;;5092004;28;19924;-89
2022/03/31 15:55:27;;;;;;;;;;;;;;;;;;5091389;28;20016;-81
2022/03/31 15:57:52;;;;;;;;;;;;;;;;;;5090693;28;19927;-86
2022/03/31 16:00:19;;;;;;;;;;;;;;;;;;5089121;28;19923;-87
2022/03/31 16:02:44;;;;;;;;;;;;;;;;;;5091239;28;20411;-88
2022/03/31 16:05:12;;;;;;;;;;;;;;;;;;5093902;28;19967;-86
2022/03/31 16:07:38;;;;;;;;;;;;;;;;;;5093905;28;19970;-86
2022/03/31 16:10:04;;;;;;;;;;;;;;;;;;5092648;28;20382;-89
2022/03/31 16:12:29;;;;;;;;;;;;;;;;;;5078136;28;19978;-85
2022/03/31 16:14:55;;;;;;;;;;;;;;;;;;5080800;28;19923;-88
2022/03/31 16:17:20;;;;;;;;;;;;;;;;;;5087958;28;20269;-81
2022/03/31 16:19:46;;;;;;;;;;;;;;;;;;5081552;28;20065;-86
2022/03/31 16:22:12;;;;;;;;;;;;;;;;;;5085235;28;19927;-82
2022/03/31 16:24:40;;;;;;;;;;;;;;;;;;5078220;28;20006;-80
2022/03/31 16:27:06;;;;;;;;;;;;;;;;;;5077868;28;19935;-87
2022/03/31 16:29:31;;;;;;;;;;;;;;;;;;5090839;28;19921;-88
2022/03/31 16:31:57;;;;;;;;;;;;;;;;;;5092183;28;19926;-88
2022/03/31 16:34:22;;;;;;;;;;;;;;;;;;5092598;28;19927;-88
2022/03/31 16:36:48;;;;;;;;;;;;;;;;;;5093288;28;19974;-88
2022/03/31 16:39:15;;;;;;;;;;;;;;;;;;5097770;28;19916;-84
2022/03/31 16:41:41;;;;;;;;;;;;;;;;;;5097609;28;20351;-85
2022/03/31 16:44:07;;;;;;;;;;;;;;;;;;5097645;28;19927;-83
2022/03/31 16:46:33;;;;;;;;;;;;;;;;;;5097616;28;19969;-84
2022/03/31 16:48:59;;;;;;;;;;;;;;;;;;5097653;28;19922;-87
2022/03/31 16:51:24;;;;;;;;;;;;;;;;;;5095035;28;19920;-85
2022/03/31 16:53:50;;;;;;;;;;;;;;;;;;5097383;28;19916;-84
2022/03/31 16:56:15;;;;;;;;;;;;;;;;;;5097607;28;19923;-81
2022/03/31 16:58:41;;;;;;;;;;;;;;;;;;5097402;28;19916;-87
2022/03/31 17:01:06;;;;;;;;;;;;;;;;;;5097551;28;19920;-86
2022/03/31 17:03:32;;;;;;;;;;;;;;;;;;5097280;28;19924;-87
2022/03/31 17:05:58;;;;;;;;;;;;;;;;;;5097191;28;19916;-85
2022/03/31 17:08:23;;;;;;;;;;;;;;;;;;5095924;28;19930;-87
2022/03/31 17:10:49;;;;;;;;;;;;;;;;;;5095968;28;19916;-86
2022/03/31 17:13:14;;;;;;;;;;;;;;;;;;5097168;28;20425;-88
2022/03/31 17:15:40;;;;;;;;;;;;;;;;;;5097138;28;19920;-86
2022/03/31 17:18:06;;;;;;;;;;;;;;;;;;5097006;28;19962;-87
2022/03/31 17:20:33;;;;;;;;;;;;;;;;;;5095737;28;19965;-89
2022/03/31 17:22:58;;;;;;;;;;;;;;;;;;5093688;28;19966;-83
2022/03/31 17:25:28;;;;;;;;;;;;;;;;;;5095278;28;20312;-83
2022/03/31 17:27:54;;;;;;;;;;;;;;;;;;5096935;28;19916;-86
2022/03/31 17:30:20;;;;;;;;;;;;;;;;;;5096753;28;19938;-87
2022/03/31 17:32:46;;;;;;;;;;;;;;;;;;5096806;28;20328;-82
2022/03/31 17:35:12;;;;;;;;;;;;;;;;;;5096786;28;19916;-83
2022/03/31 17:37:37;;;;;;;;;;;;;;;;;;5096732;28;20002;-81
2022/03/31 17:40:03;;;;;;;;;;;;;;;;;;5096540;28;19916;-86
2022/03/31 17:42:29;;;;;;;;;;;;;;;;;;5094143;28;19947;-86
2022/03/31 17:44:54;;;;;;;;;;;;;;;;;;5096507;28;19955;-83
2022/03/31 17:47:20;;;;;;;;;;;;;;;;;;5096134;28;19916;-85
2022/03/31 17:49:46;;;;;;;;;;;;;;;;;;5096547;28;19920;-80
2022/03/31 17:52:12;;;;;;;;;;;;;;;;;;5096296;28;19938;-80
2022/03/31 17:54:38;;;;;;;;;;;;;;;;;;5096223;28;20022;-86
2022/03/31 17:57:04;;;;;;;;;;;;;;;;;;5096264;28;20004;-84
2022/03/31 17:59:29;;;;;;;;;;;;;;;;;;5094998;28;19928;-83
2022/03/31 18:01:55;;;;;;;;;;;;;;;;;;5096210;28;19963;-85
2022/03/31 18:04:23;;;;;;;;;;;;;;;;;;5096066;28;20014;-84